createdAt,value
2023-01-07T00:00:08.358Z,51.18
2023-01-07T00:01:41.300Z,51.38
2023-01-07T00:03:12.965Z,51.22
2023-01-07T00:04:44.563Z,51.45
2023-01-07T00:06:19.697Z,51.46
2023-01-07T00:07:51.466Z,51.41
2023-01-07T00:09:23.021Z,51.50
2023-01-07T00:10:54.589Z,51.81
2023-01-07T00:12:26.157Z,51.56
2023-01-07T00:13:58.351Z,52.06
2023-01-07T00:15:29.912Z,51.70
2023-01-07T00:17:01.490Z,51.80
2023-01-07T00:18:33.333Z,51.92
2023-01-07T00:20:05.182Z,51.86
2023-01-07T00:21:36.738Z,51.76
2023-01-07T00:23:08.307Z,52.19
2023-01-07T00:24:39.890Z,52.09
2023-01-07T00:26:12.352Z,51.86
2023-01-07T00:27:43.837Z,51.88
2023-01-07T00:29:17.078Z,51.88
2023-01-07T00:30:48.792Z,51.66
2023-01-07T00:32:20.742Z,51.50
2023-01-07T00:34:07.153Z,51.90
2023-01-07T00:35:38.812Z,51.71
2023-01-07T00:37:28.567Z,51.65
2023-01-07T00:39:00.851Z,51.98
2023-01-07T00:40:32.613Z,51.92
2023-01-07T00:42:42.666Z,51.91
2023-01-07T00:44:14.306Z,52.16
2023-01-07T00:45:45.928Z,52.41
2023-01-07T00:47:17.440Z,52.10
2023-01-07T00:48:48.985Z,52.11
2023-01-07T00:50:21.432Z,52.09
2023-01-07T00:51:52.988Z,52.17
2023-01-07T00:53:25.338Z,52.22
2023-01-07T00:54:59.199Z,52.16
2023-01-07T00:56:31.000Z,52.45
2023-01-07T00:58:02.463Z,52.25
2023-01-07T00:59:34.078Z,52.40
2023-01-07T01:01:05.722Z,52.16
2023-01-07T01:02:37.841Z,52.56
2023-01-07T01:04:09.447Z,52.48
2023-01-07T01:05:40.963Z,52.60
2023-01-07T01:07:12.464Z,52.47
2023-01-07T01:08:44.475Z,52.60
2023-01-07T01:10:16.721Z,52.47
2023-01-07T01:11:48.259Z,52.52
2023-01-07T01:13:19.931Z,52.80
2023-01-07T01:14:51.410Z,52.58
2023-01-07T01:16:23.139Z,52.86
2023-01-07T01:17:54.954Z,52.67
2023-01-07T01:19:26.476Z,52.97
2023-01-07T01:21:02.514Z,52.62
2023-01-07T01:22:34.374Z,52.57
2023-01-07T01:24:06.010Z,53.15
2023-01-07T01:25:37.823Z,52.71
2023-01-07T01:27:09.338Z,53.05
2023-01-07T01:28:40.914Z,53.13
2023-01-07T01:30:12.639Z,52.71
2023-01-07T01:31:44.356Z,52.92
2023-01-07T01:33:15.999Z,53.42
2023-01-07T01:34:47.480Z,52.68
2023-01-07T01:36:19.113Z,53.08
2023-01-07T01:37:50.653Z,53.02
2023-01-07T01:39:22.338Z,53.10
2023-01-07T01:40:53.837Z,53.67
2023-01-07T01:42:25.430Z,52.96
2023-01-07T01:43:57.254Z,53.43
2023-01-07T01:45:28.779Z,53.05
2023-01-07T01:47:00.544Z,53.08
2023-01-07T01:48:32.892Z,53.66
2023-01-07T01:50:10.406Z,53.58
2023-01-07T01:51:42.108Z,53.05
2023-01-07T01:53:19.954Z,52.87
2023-01-07T01:54:52.714Z,53.43
2023-01-07T01:56:25.855Z,52.94
2023-01-07T01:57:59.610Z,52.97
2023-01-07T01:59:31.654Z,53.67
2023-01-07T02:01:03.460Z,53.32
2023-01-07T02:02:37.958Z,53.17
2023-01-07T02:04:16.915Z,53.55
2023-01-07T02:05:48.460Z,53.62
2023-01-07T02:07:19.936Z,53.66
2023-01-07T02:08:51.583Z,53.22
2023-01-07T02:10:23.356Z,53.48
2023-01-07T02:11:54.939Z,53.75
2023-01-07T02:13:55.934Z,53.65
2023-01-07T02:15:30.632Z,53.72
2023-01-07T02:17:12.561Z,53.97
2023-01-07T02:18:46.641Z,53.64
2023-01-07T02:20:37.079Z,53.69
2023-01-07T02:22:14.801Z,53.39
2023-01-07T02:23:58.429Z,53.76
2023-01-07T02:25:32.744Z,53.46
2023-01-07T02:27:13.748Z,53.80
2023-01-07T02:29:03.627Z,54.09
2023-01-07T02:30:54.084Z,53.55
2023-01-07T02:32:31.217Z,53.89
2023-01-07T02:34:07.931Z,53.50
2023-01-07T02:35:57.871Z,53.18
2023-01-07T02:37:47.983Z,53.81
2023-01-07T02:39:25.341Z,54.05
2023-01-07T02:41:12.145Z,54.31
2023-01-07T02:43:07.051Z,54.42
2023-01-07T02:44:40.413Z,54.35
2023-01-07T02:46:30.640Z,54.46
2023-01-07T02:48:08.958Z,54.70
2023-01-07T02:49:40.494Z,54.42
2023-01-07T02:51:12.076Z,54.50
2023-01-07T02:52:43.758Z,54.04
2023-01-07T02:54:20.387Z,54.23
2023-01-07T02:55:51.925Z,54.19
2023-01-07T02:57:28.328Z,53.83
2023-01-07T02:59:02.733Z,53.74
2023-01-07T03:00:45.321Z,54.13
2023-01-07T03:02:17.031Z,54.00
2023-01-07T03:03:48.542Z,54.00
2023-01-07T03:05:22.823Z,54.05
2023-01-07T03:07:12.874Z,54.36
2023-01-07T03:09:00.828Z,54.32
2023-01-07T03:10:52.594Z,54.48
2023-01-07T03:12:24.248Z,54.87
2023-01-07T03:14:19.004Z,54.50
2023-01-07T03:15:56.187Z,54.05
2023-01-07T03:17:53.988Z,54.43
2023-01-07T03:19:25.994Z,54.43
2023-01-07T03:20:58.620Z,53.71
2023-01-07T03:22:30.309Z,53.61
2023-01-07T03:24:02.099Z,53.81
2023-01-07T03:25:34.853Z,53.91
2023-01-07T03:27:06.482Z,54.02
2023-01-07T03:28:40.754Z,54.45
2023-01-07T03:30:13.831Z,54.29
2023-01-07T03:31:58.688Z,54.54
2023-01-07T03:33:36.437Z,55.03
2023-01-07T03:35:08.317Z,54.68
2023-01-07T03:36:41.869Z,54.74
2023-01-07T03:38:13.449Z,55.10
2023-01-07T03:39:45.298Z,55.01
2023-01-07T03:41:36.696Z,54.63
2023-01-07T03:43:14.696Z,55.28
2023-01-07T03:44:46.197Z,54.95
2023-01-07T03:46:17.688Z,54.88
2023-01-07T03:47:49.932Z,54.92
2023-01-07T03:49:21.398Z,54.89
2023-01-07T03:50:52.915Z,54.31
2023-01-07T03:52:24.546Z,54.95
2023-01-07T03:53:56.069Z,55.05
2023-01-07T03:55:27.848Z,55.13
2023-01-07T03:56:59.540Z,54.74
2023-01-07T03:58:31.575Z,55.23
2023-01-07T04:00:04.392Z,54.73
2023-01-07T04:01:36.541Z,54.99
2023-01-07T04:03:08.246Z,55.12
2023-01-07T04:04:39.802Z,55.00
2023-01-07T04:06:11.354Z,54.66
2023-01-07T04:07:42.900Z,54.96
2023-01-07T04:09:18.931Z,55.08
2023-01-07T04:10:50.452Z,54.55
2023-01-07T04:12:22.054Z,54.38
2023-01-07T04:13:53.620Z,54.52
2023-01-07T04:15:25.070Z,54.88
2023-01-07T04:16:56.722Z,54.36
2023-01-07T04:18:28.554Z,55.15
2023-01-07T04:20:00.149Z,54.55
2023-01-07T04:21:31.660Z,54.70
2023-01-07T04:23:03.183Z,54.63
2023-01-07T04:24:34.682Z,54.91
2023-01-07T04:26:06.311Z,55.00
2023-01-07T04:27:37.958Z,55.16
2023-01-07T04:29:10.724Z,55.22
2023-01-07T04:30:42.351Z,55.41
2023-01-07T04:32:13.945Z,55.56
2023-01-07T04:33:46.103Z,55.06
2023-01-07T04:35:18.391Z,55.25
2023-01-07T04:36:50.057Z,54.82
2023-01-07T04:38:21.565Z,55.33
2023-01-07T04:39:53.143Z,55.04
2023-01-07T04:41:24.678Z,54.96
2023-01-07T04:42:56.174Z,55.21
2023-01-07T04:44:27.799Z,54.74
2023-01-07T04:45:59.393Z,54.35
2023-01-07T04:47:30.909Z,54.46
2023-01-07T04:49:02.485Z,54.79
2023-01-07T04:50:34.098Z,55.09
2023-01-07T04:52:05.658Z,54.41
2023-01-07T04:53:37.150Z,54.66
2023-01-07T04:55:09.103Z,54.77
2023-01-07T04:56:40.616Z,55.00
2023-01-07T04:58:12.139Z,55.22
2023-01-07T04:59:43.669Z,55.22
2023-01-07T05:01:15.332Z,55.11
2023-01-07T05:02:46.936Z,55.64
2023-01-07T05:04:18.477Z,55.56
2023-01-07T05:05:50.136Z,55.19
2023-01-07T05:07:21.856Z,55.53
2023-01-07T05:08:53.489Z,55.50
2023-01-07T05:10:25.099Z,55.84
2023-01-07T05:11:56.611Z,55.81
2023-01-07T05:13:28.182Z,55.56
2023-01-07T05:14:59.735Z,55.50
2023-01-07T05:16:31.452Z,56.05
2023-01-07T05:18:03.090Z,55.76
2023-01-07T05:19:34.761Z,56.00
2023-01-07T05:21:06.500Z,55.67
2023-01-07T05:22:38.014Z,55.97
2023-01-07T05:24:09.636Z,55.82
2023-01-07T05:25:41.372Z,55.76
2023-01-07T05:27:13.068Z,55.73
2023-01-07T05:28:44.543Z,55.97
2023-01-07T05:30:16.229Z,55.59
2023-01-07T05:31:47.762Z,55.03
2023-01-07T05:33:19.307Z,54.85
2023-01-07T05:34:50.842Z,55.23
2023-01-07T05:36:22.379Z,55.02
2023-01-07T05:37:53.910Z,55.22
2023-01-07T05:39:26.041Z,55.00
2023-01-07T05:40:57.646Z,55.25
2023-01-07T05:42:29.485Z,55.11
2023-01-07T05:44:01.144Z,55.31
2023-01-07T05:45:34.131Z,55.82
2023-01-07T05:47:05.675Z,55.29
2023-01-07T05:48:37.123Z,55.87
2023-01-07T05:50:08.868Z,55.88
2023-01-07T05:51:40.633Z,55.83
2023-01-07T05:53:12.659Z,55.58
2023-01-07T05:54:44.324Z,55.54
2023-01-07T05:56:15.904Z,55.84
2023-01-07T05:57:47.458Z,56.03
2023-01-07T05:59:18.973Z,55.76
2023-01-07T06:00:50.504Z,55.65
2023-01-07T06:02:22.206Z,55.94
2023-01-07T06:03:53.853Z,55.64
2023-01-07T06:05:25.642Z,55.99
2023-01-07T06:06:57.434Z,56.43
2023-01-07T06:08:29.026Z,56.54
2023-01-07T06:10:02.810Z,56.44
2023-01-07T06:11:34.771Z,56.63
2023-01-07T06:13:06.414Z,56.37
2023-01-07T06:14:37.926Z,56.92
2023-01-07T06:16:09.824Z,56.80
2023-01-07T06:17:41.387Z,56.52
2023-01-07T06:19:12.967Z,56.27
2023-01-07T06:20:44.445Z,56.26
2023-01-07T06:22:16.099Z,56.61
2023-01-07T06:23:47.738Z,56.08
2023-01-07T06:25:19.291Z,56.14
2023-01-07T06:26:50.908Z,56.31
2023-01-07T06:28:22.872Z,56.08
2023-01-07T06:29:54.507Z,56.21
2023-01-07T06:31:26.073Z,56.60
2023-01-07T06:32:58.641Z,56.09
2023-01-07T06:34:30.166Z,56.32
2023-01-07T06:36:01.808Z,55.85
2023-01-07T06:37:33.478Z,55.79
2023-01-07T06:39:05.315Z,56.34
2023-01-07T06:40:36.995Z,56.31
2023-01-07T06:42:08.537Z,56.74
2023-01-07T06:43:40.057Z,55.91
2023-01-07T06:45:12.076Z,56.30
2023-01-07T06:46:43.746Z,56.08
2023-01-07T06:48:15.369Z,56.12
2023-01-07T06:49:46.855Z,56.36
2023-01-07T06:51:18.385Z,56.15
2023-01-07T06:52:49.952Z,56.06
2023-01-07T06:54:21.427Z,56.07
2023-01-07T06:55:53.266Z,56.51
2023-01-07T06:57:24.759Z,56.71
2023-01-07T06:58:56.368Z,56.08
2023-01-07T07:00:27.963Z,56.10
2023-01-07T07:01:59.538Z,56.11
2023-01-07T07:03:30.996Z,55.93
2023-01-07T07:05:02.662Z,56.24
2023-01-07T07:06:34.204Z,56.45
2023-01-07T07:08:06.557Z,55.99
2023-01-07T07:09:38.115Z,56.63
2023-01-07T07:11:09.721Z,56.38
2023-01-07T07:12:41.743Z,56.34
2023-01-07T07:14:13.366Z,56.21
2023-01-07T07:15:44.928Z,56.50
2023-01-07T07:17:17.057Z,56.39
2023-01-07T07:18:48.705Z,56.19
2023-01-07T07:20:20.252Z,56.18
2023-01-07T07:21:51.806Z,56.33
2023-01-07T07:23:23.433Z,56.26
2023-01-07T07:24:54.999Z,56.17
2023-01-07T07:26:26.663Z,55.87
2023-01-07T07:27:58.234Z,56.04
2023-01-07T07:29:29.941Z,55.87
2023-01-07T07:31:01.459Z,56.06
2023-01-07T07:32:33.083Z,56.05
2023-01-07T07:34:04.858Z,55.88
2023-01-07T07:35:36.385Z,56.18
2023-01-07T07:37:08.587Z,56.25
2023-01-07T07:38:40.600Z,55.87
2023-01-07T07:40:12.683Z,55.90
2023-01-07T07:41:44.224Z,55.79
2023-01-07T07:43:16.067Z,55.44
2023-01-07T07:44:47.954Z,55.39
2023-01-07T07:46:19.817Z,55.19
2023-01-07T07:47:51.571Z,55.95
2023-01-07T07:49:23.400Z,55.49
2023-01-07T07:50:54.950Z,56.01
2023-01-07T07:52:26.527Z,55.43
2023-01-07T07:53:58.830Z,55.62
2023-01-07T07:55:30.818Z,55.68
2023-01-07T07:57:04.007Z,55.77
2023-01-07T07:58:35.566Z,56.00
2023-01-07T08:00:07.533Z,55.57
2023-01-07T08:01:39.203Z,55.75
2023-01-07T08:03:11.198Z,55.83
2023-01-07T08:04:42.820Z,55.85
2023-01-07T08:06:14.507Z,55.93
2023-01-07T08:07:46.178Z,55.80
2023-01-07T08:09:17.748Z,55.68
2023-01-07T08:10:49.276Z,54.94
2023-01-07T08:12:20.853Z,55.53
2023-01-07T08:13:52.697Z,55.59
2023-01-07T08:15:24.328Z,55.27
2023-01-07T08:16:55.875Z,55.41
2023-01-07T08:18:27.531Z,55.73
2023-01-07T08:19:59.125Z,54.87
2023-01-07T08:21:30.639Z,55.69
2023-01-07T08:23:02.421Z,55.24
2023-01-07T08:24:36.152Z,55.36
2023-01-07T08:26:07.807Z,55.22
2023-01-07T08:27:39.372Z,55.68
2023-01-07T08:29:10.963Z,54.68
2023-01-07T08:30:42.791Z,55.29
2023-01-07T08:32:14.843Z,54.98
2023-01-07T08:33:46.389Z,55.27
2023-01-07T08:35:17.929Z,55.54
2023-01-07T08:36:49.602Z,54.91
2023-01-07T08:38:21.331Z,55.13
2023-01-07T08:39:52.879Z,55.00
2023-01-07T08:41:25.405Z,55.00
2023-01-07T08:43:00.249Z,55.17
2023-01-07T08:44:33.232Z,54.83
2023-01-07T08:46:05.742Z,54.50
2023-01-07T08:47:37.401Z,55.07
2023-01-07T08:49:10.077Z,54.58
2023-01-07T08:50:41.671Z,54.77
2023-01-07T08:52:13.262Z,54.22
2023-01-07T08:53:44.731Z,54.85
2023-01-07T08:55:16.581Z,54.59
2023-01-07T08:56:48.075Z,54.28
2023-01-07T08:58:20.188Z,54.59
2023-01-07T08:59:51.895Z,54.41
2023-01-07T09:01:23.667Z,54.05
2023-01-07T09:02:55.421Z,54.28
2023-01-07T09:04:27.160Z,53.98
2023-01-07T09:05:58.895Z,53.84
2023-01-07T09:07:30.577Z,53.63
2023-01-07T09:09:02.083Z,53.94
2023-01-07T09:10:33.637Z,53.81
2023-01-07T09:12:05.633Z,54.06
2023-01-07T09:13:37.188Z,53.81
2023-01-07T09:15:09.255Z,53.84
2023-01-07T09:16:40.929Z,53.89
2023-01-07T09:18:12.485Z,53.88
2023-01-07T09:19:44.248Z,53.72
2023-01-07T09:21:15.884Z,53.69
2023-01-07T09:22:47.609Z,53.51
2023-01-07T09:24:19.336Z,53.71
2023-01-07T09:25:50.973Z,53.64
2023-01-07T09:27:22.908Z,53.29
2023-01-07T09:28:54.600Z,53.28
2023-01-07T09:30:26.198Z,53.92
2023-01-07T09:31:57.927Z,53.65
2023-01-07T09:33:32.541Z,53.15
2023-01-07T09:35:04.831Z,53.34
2023-01-07T09:36:38.584Z,53.43
2023-01-07T09:38:10.198Z,53.22
2023-01-07T09:39:49.006Z,52.55
2023-01-07T09:41:40.932Z,52.79
2023-01-07T09:43:20.386Z,52.88
2023-01-07T09:44:54.813Z,52.70
2023-01-07T09:46:26.521Z,53.09
2023-01-07T09:47:58.635Z,52.58
2023-01-07T09:49:30.599Z,53.05
2023-01-07T09:51:20.932Z,52.66
2023-01-07T09:52:54.044Z,52.75
2023-01-07T09:54:25.932Z,53.09
2023-01-07T09:56:11.373Z,52.24
2023-01-07T09:57:46.979Z,53.10
2023-01-07T09:59:18.483Z,52.50
2023-01-07T10:00:54.612Z,51.95
2023-01-07T10:02:38.666Z,52.16
2023-01-07T10:04:37.572Z,52.81
2023-01-07T10:06:09.322Z,52.66
2023-01-07T10:08:30.500Z,52.02
2023-01-07T10:09:51.971Z,52.40
2023-01-07T10:11:29.490Z,52.28
2023-01-07T10:13:04.501Z,52.00
2023-01-07T10:14:43.617Z,51.95
2023-01-07T10:16:29.886Z,51.13
2023-01-07T10:18:23.237Z,51.80
2023-01-07T10:20:03.598Z,51.24
2023-01-07T10:21:58.451Z,51.22
2023-01-07T10:23:37.087Z,51.58
2023-01-07T10:25:16.255Z,51.13
2023-01-07T10:26:51.666Z,51.03
2023-01-07T10:28:30.525Z,51.10
2023-01-07T10:30:03.546Z,50.69
2023-01-07T10:31:35.328Z,50.60
2023-01-07T10:33:19.381Z,50.59
2023-01-07T10:34:51.887Z,50.45
2023-01-07T10:36:25.734Z,50.84
2023-01-07T10:37:57.687Z,50.57
2023-01-07T10:39:50.076Z,50.50
2023-01-07T10:41:30.267Z,50.72
2023-01-07T10:43:11.899Z,50.41
2023-01-07T10:44:59.963Z,50.58
2023-01-07T10:46:47.131Z,49.89
2023-01-07T10:48:24.511Z,50.33
2023-01-07T10:49:57.489Z,50.27
2023-01-07T10:51:39.045Z,50.01
2023-01-07T10:53:10.655Z,50.23
2023-01-07T10:54:49.996Z,50.20
2023-01-07T10:56:47.658Z,50.23
2023-01-07T10:58:19.916Z,49.98
2023-01-07T10:59:53.009Z,49.91
2023-01-07T11:01:24.953Z,49.80
2023-01-07T11:03:00.251Z,50.17
2023-01-07T11:04:31.960Z,49.93
2023-01-07T11:06:04.820Z,49.84
2023-01-07T11:07:44.371Z,49.78
2023-01-07T11:09:19.906Z,49.54
2023-01-07T11:10:51.771Z,49.71
2023-01-07T11:12:42.213Z,49.27
2023-01-07T11:14:21.407Z,49.16
2023-01-07T11:16:00.130Z,48.90
2023-01-07T11:17:31.617Z,48.94
2023-01-07T11:19:03.339Z,48.53
2023-01-07T11:20:41.898Z,48.60
2023-01-07T11:22:39.830Z,48.47
2023-01-07T11:24:30.465Z,48.32
2023-01-07T11:26:28.120Z,47.92
2023-01-07T11:28:01.274Z,47.98
2023-01-07T11:29:37.668Z,47.92
2023-01-07T11:31:09.794Z,48.17
2023-01-07T11:32:41.601Z,47.69
2023-01-07T11:34:20.704Z,47.75
2023-01-07T11:35:53.277Z,48.03
2023-01-07T11:37:34.426Z,47.82
2023-01-07T11:39:16.975Z,48.24
2023-01-07T11:40:50.822Z,48.05
2023-01-07T11:42:41.074Z,47.94
2023-01-07T11:44:15.722Z,47.49
2023-01-07T11:46:20.542Z,47.46
2023-01-07T11:48:00.708Z,47.11
2023-01-07T11:49:32.375Z,47.42
2023-01-07T11:51:06.097Z,46.88
2023-01-07T11:52:38.230Z,47.09
2023-01-07T11:54:18.113Z,47.19
2023-01-07T11:56:06.063Z,47.24
2023-01-07T11:57:37.855Z,47.12
2023-01-07T11:59:12.409Z,46.52
2023-01-07T12:00:44.145Z,46.49
2023-01-07T12:02:22.820Z,46.17
2023-01-07T12:03:54.476Z,46.17
2023-01-07T12:05:29.099Z,46.50
2023-01-07T12:07:01.673Z,46.16
2023-01-07T12:08:33.285Z,46.08
2023-01-07T12:10:05.215Z,45.93
2023-01-07T12:11:37.283Z,46.15
2023-01-07T12:13:18.729Z,46.05
2023-01-07T12:14:50.257Z,46.01
2023-01-07T12:16:25.917Z,45.67
2023-01-07T12:18:16.392Z,45.68
2023-01-07T12:19:59.064Z,45.55
2023-01-07T12:21:42.669Z,45.52
2023-01-07T12:23:34.579Z,45.56
2023-01-07T12:25:16.432Z,45.30
2023-01-07T12:26:57.351Z,45.32
2023-01-07T12:28:42.610Z,45.24
2023-01-07T12:30:32.889Z,45.16
2023-01-07T12:32:26.979Z,44.97
2023-01-07T12:34:05.544Z,44.75
2023-01-07T12:35:38.575Z,44.86
2023-01-07T12:37:28.719Z,44.72
2023-01-07T12:39:01.228Z,44.22
2023-01-07T12:40:47.730Z,44.46
2023-01-07T12:44:03.492Z,44.57
2023-01-07T12:45:42.924Z,44.54
2023-01-07T12:47:31.482Z,44.50
2023-01-07T12:49:08.111Z,44.24
2023-01-07T12:50:41.212Z,44.29
2023-01-07T12:52:24.902Z,44.00
2023-01-07T12:53:57.664Z,43.84
2023-01-07T12:55:40.230Z,43.87
2023-01-07T12:57:12.005Z,44.16
2023-01-07T12:58:47.491Z,43.82
2023-01-07T13:00:26.080Z,43.91
2023-01-07T13:02:00.566Z,43.74
2023-01-07T13:03:55.890Z,43.69
2023-01-07T13:05:41.543Z,43.56
2023-01-07T13:07:14.994Z,43.45
2023-01-07T13:08:58.140Z,43.17
2023-01-07T13:10:39.609Z,43.19
2023-01-07T13:12:41.867Z,43.02
2023-01-07T13:14:22.687Z,43.09
2023-01-07T13:15:54.654Z,43.00
2023-01-07T13:17:27.050Z,42.71
2023-01-07T13:18:59.148Z,42.81
2023-01-07T13:20:49.724Z,42.58
2023-01-07T13:22:38.438Z,42.75
2023-01-07T13:24:14.505Z,42.81
2023-01-07T13:25:50.955Z,42.43
2023-01-07T13:27:24.714Z,42.48
2023-01-07T13:29:05.168Z,42.27
2023-01-07T13:30:46.034Z,42.19
2023-01-07T13:32:22.793Z,42.22
2023-01-07T13:34:00.386Z,42.23
2023-01-07T13:35:31.925Z,42.08
2023-01-07T13:37:03.761Z,41.87
2023-01-07T13:38:41.877Z,41.68
2023-01-07T13:40:24.655Z,41.59
2023-01-07T13:42:00.035Z,41.48
2023-01-07T13:43:31.674Z,41.62
2023-01-07T13:45:03.316Z,41.37
2023-01-07T13:46:35.652Z,41.42
2023-01-07T13:48:16.578Z,41.37
2023-01-07T13:49:57.827Z,41.07
2023-01-07T13:51:30.592Z,40.91
2023-01-07T13:53:06.164Z,40.92
2023-01-07T13:54:50.638Z,40.94
2023-01-07T13:56:22.730Z,41.06
2023-01-07T13:57:54.301Z,40.78
2023-01-07T13:59:30.014Z,40.72
2023-01-07T14:01:15.084Z,40.73
2023-01-07T14:02:56.311Z,40.77
2023-01-07T14:04:34.213Z,40.55
2023-01-07T14:06:20.820Z,40.45
2023-01-07T14:07:53.443Z,40.57
2023-01-07T14:09:26.084Z,40.55
2023-01-07T14:10:57.647Z,40.30
2023-01-07T14:12:45.638Z,40.34
2023-01-07T14:14:35.599Z,40.23
2023-01-07T14:16:26.007Z,40.03
2023-01-07T14:17:57.622Z,39.90
2023-01-07T14:19:48.302Z,40.16
2023-01-07T14:21:32.335Z,39.78
2023-01-07T14:23:12.784Z,40.28
2023-01-07T14:24:44.456Z,40.10
2023-01-07T14:26:34.700Z,40.21
2023-01-07T14:28:16.704Z,40.04
2023-01-07T14:29:48.415Z,40.03
2023-01-07T14:31:53.334Z,39.56
2023-01-07T14:33:25.681Z,39.88
2023-01-07T14:35:20.275Z,40.05
2023-01-07T14:37:09.981Z,39.74
2023-01-07T14:38:42.118Z,39.59
2023-01-07T14:40:34.002Z,39.43
2023-01-07T14:42:20.606Z,39.96
2023-01-07T14:44:02.448Z,39.69
2023-01-07T14:45:36.650Z,39.58
2023-01-07T14:47:11.573Z,39.99
2023-01-07T14:48:43.136Z,40.09
2023-01-07T14:50:30.395Z,40.11
2023-01-07T14:52:17.796Z,39.65
2023-01-07T14:53:57.320Z,40.07
2023-01-07T14:55:31.980Z,39.78
2023-01-07T14:57:07.718Z,39.42
2023-01-07T14:58:46.180Z,39.52
2023-01-07T15:00:26.638Z,40.02
2023-01-07T15:01:58.297Z,39.85
2023-01-07T15:03:39.355Z,40.06
2023-01-07T15:05:30.098Z,40.09
2023-01-07T15:07:01.853Z,40.06
2023-01-07T15:09:18.511Z,40.19
2023-01-07T15:11:09.017Z,40.21
2023-01-07T15:12:59.099Z,40.16
2023-01-07T15:14:49.370Z,40.14
2023-01-07T15:16:21.157Z,40.33
2023-01-07T15:17:53.004Z,40.51
2023-01-07T15:19:24.642Z,40.83
2023-01-07T15:20:56.170Z,40.54
2023-01-07T15:22:33.869Z,40.55
2023-01-07T15:24:05.691Z,40.82
2023-01-07T15:25:50.399Z,40.42
2023-01-07T15:27:24.861Z,40.70
2023-01-07T15:29:09.298Z,41.09
2023-01-07T15:31:01.161Z,41.16
2023-01-07T15:32:42.239Z,41.32
2023-01-07T15:34:14.924Z,40.99
2023-01-07T15:35:46.756Z,41.17
2023-01-07T15:37:18.823Z,41.17
2023-01-07T15:38:53.042Z,40.78
2023-01-07T15:40:24.965Z,41.53
2023-01-07T15:41:56.759Z,40.66
2023-01-07T15:43:29.044Z,41.35
2023-01-07T15:45:00.946Z,40.97
2023-01-07T15:46:32.996Z,41.07
2023-01-07T15:48:08.117Z,41.53
2023-01-07T15:49:42.907Z,41.15
2023-01-07T15:51:17.763Z,41.94
2023-01-07T15:52:50.319Z,41.75
2023-01-07T15:54:28.380Z,41.64
2023-01-07T15:56:02.128Z,41.45
2023-01-07T15:57:35.553Z,41.93
2023-01-07T15:59:07.451Z,41.57
2023-01-07T16:00:39.027Z,42.24
2023-01-07T16:02:20.129Z,41.95
2023-01-07T16:03:52.703Z,41.75
2023-01-07T16:05:26.466Z,42.20
2023-01-07T16:06:59.377Z,42.16
2023-01-07T16:08:31.618Z,42.10
2023-01-07T16:10:03.334Z,42.26
2023-01-07T16:11:34.866Z,41.55
2023-01-07T16:13:14.405Z,41.68
2023-01-07T16:14:46.676Z,42.17
2023-01-07T16:16:18.665Z,41.63
2023-01-07T16:17:51.373Z,42.11
2023-01-07T16:19:23.196Z,42.62
2023-01-07T16:20:57.772Z,42.79
2023-01-07T16:22:29.347Z,42.44
2023-01-07T16:24:00.986Z,42.32
2023-01-07T16:25:34.795Z,42.43
2023-01-07T16:27:09.406Z,42.71
2023-01-07T16:28:46.333Z,42.62
2023-01-07T16:30:18.244Z,42.56
2023-01-07T16:31:49.980Z,43.04
2023-01-07T16:33:23.436Z,42.81
2023-01-07T16:34:56.617Z,42.90
2023-01-07T16:36:36.319Z,42.83
2023-01-07T16:38:08.494Z,42.71
2023-01-07T16:39:41.262Z,42.79
2023-01-07T16:41:19.381Z,43.09
2023-01-07T16:42:51.025Z,42.61
2023-01-07T16:44:41.850Z,42.60
2023-01-07T16:46:16.443Z,42.94
2023-01-07T16:47:58.604Z,42.49
2023-01-07T16:49:30.307Z,43.17
2023-01-07T16:51:02.214Z,43.46
2023-01-07T16:52:33.754Z,43.45
2023-01-07T16:54:24.177Z,43.25
2023-01-07T16:56:07.966Z,43.17
2023-01-07T16:57:42.264Z,43.00
2023-01-07T16:59:14.439Z,42.96
2023-01-07T17:00:49.491Z,43.37
2023-01-07T17:02:42.157Z,43.32
2023-01-07T17:04:17.840Z,43.24
2023-01-07T17:05:59.371Z,43.39
2023-01-07T17:07:30.927Z,43.68
2023-01-07T17:09:02.737Z,43.00
2023-01-07T17:10:35.279Z,43.85
2023-01-07T17:12:07.092Z,43.43
2023-01-07T17:13:39.073Z,43.68
2023-01-07T17:15:29.203Z,43.54
2023-01-07T17:17:01.185Z,43.81
2023-01-07T17:18:33.293Z,43.96
2023-01-07T17:20:14.364Z,43.97
2023-01-07T17:21:45.864Z,44.15
2023-01-07T17:23:26.542Z,43.30
2023-01-07T17:25:11.462Z,43.76
2023-01-07T17:26:42.947Z,43.69
2023-01-07T17:28:19.571Z,43.53
2023-01-07T17:29:51.190Z,44.13
2023-01-07T17:31:23.701Z,44.28
2023-01-07T17:32:55.498Z,44.09
2023-01-07T17:34:27.225Z,44.34
2023-01-07T17:35:58.831Z,44.05
2023-01-07T17:37:30.500Z,44.06
2023-01-07T17:39:02.163Z,43.95
2023-01-07T17:40:33.733Z,44.00
2023-01-07T17:42:27.690Z,44.36
2023-01-07T17:44:00.149Z,44.66
2023-01-07T17:45:57.967Z,44.56
2023-01-07T17:47:31.729Z,44.77
2023-01-07T17:49:07.059Z,44.82
2023-01-07T17:51:23.593Z,44.86
2023-01-07T17:52:55.276Z,44.81
2023-01-07T17:54:27.398Z,45.04
2023-01-07T17:56:01.391Z,44.65
2023-01-07T17:57:33.377Z,44.87
2023-01-07T17:59:07.794Z,45.14
2023-01-07T18:00:41.232Z,44.95
2023-01-07T18:02:40.773Z,45.11
2023-01-07T18:04:15.618Z,44.86
2023-01-07T18:05:47.620Z,44.98
2023-01-07T18:07:22.086Z,44.92
2023-01-07T18:08:53.879Z,44.95
2023-01-07T18:10:26.757Z,44.78
2023-01-07T18:12:17.105Z,44.60
2023-01-07T18:13:51.017Z,44.38
2023-01-07T18:15:36.759Z,44.79
2023-01-07T18:19:34.585Z,44.21
2023-01-07T18:21:14.240Z,44.75
2023-01-07T18:22:47.996Z,45.15
2023-01-07T18:24:20.123Z,45.01
2023-01-07T18:25:51.796Z,44.84
2023-01-07T18:27:35.644Z,45.13
2023-01-07T18:29:33.912Z,44.88
2023-01-07T18:31:07.864Z,45.16
2023-01-07T18:32:51.615Z,44.88
2023-01-07T18:34:26.296Z,45.09
2023-01-07T18:36:14.734Z,45.07
2023-01-07T18:37:52.924Z,45.39
2023-01-07T18:39:40.626Z,45.23
2023-01-07T18:41:16.543Z,45.57
2023-01-07T18:42:50.205Z,45.59
2023-01-07T18:44:33.215Z,45.63
2023-01-07T18:46:08.143Z,45.47
2023-01-07T18:47:43.884Z,45.51
2023-01-07T18:49:40.575Z,45.71
2023-01-07T18:51:31.752Z,45.51
2023-01-07T18:53:10.807Z,45.52
2023-01-07T18:54:46.541Z,45.61
2023-01-07T18:56:19.420Z,45.99
2023-01-07T18:57:57.520Z,45.60
2023-01-07T18:59:29.523Z,46.10
2023-01-07T19:01:15.285Z,45.99
2023-01-07T19:03:04.255Z,45.98
2023-01-07T19:04:45.756Z,45.98
2023-01-07T19:08:11.683Z,45.98
2023-01-07T19:09:50.215Z,46.07
2023-01-07T19:11:22.195Z,45.52
2023-01-07T19:13:05.837Z,46.10
2023-01-07T19:14:37.727Z,45.84
2023-01-07T19:16:10.394Z,46.33
2023-01-07T19:17:42.071Z,46.21
2023-01-07T19:19:14.484Z,45.88
2023-01-07T19:20:46.330Z,45.90
2023-01-07T19:22:20.849Z,46.66
2023-01-07T19:23:52.557Z,46.16
2023-01-07T19:25:24.227Z,46.34
2023-01-07T19:26:55.759Z,46.71
2023-01-07T19:28:27.542Z,46.97
2023-01-07T19:29:59.057Z,46.30
2023-01-07T19:31:30.540Z,46.83
2023-01-07T19:33:04.461Z,47.02
2023-01-07T19:34:36.095Z,46.66
2023-01-07T19:36:09.575Z,46.59
2023-01-07T19:37:41.123Z,46.35
2023-01-07T19:39:13.681Z,46.37
2023-01-07T19:40:45.336Z,46.50
2023-01-07T19:42:16.894Z,46.38
2023-01-07T19:43:48.657Z,46.22
2023-01-07T19:45:20.302Z,46.30
2023-01-07T19:46:51.804Z,46.78
2023-01-07T19:48:23.734Z,46.11
2023-01-07T19:49:55.416Z,46.79
2023-01-07T19:51:35.417Z,46.99
2023-01-07T19:53:07.385Z,47.00
2023-01-07T19:54:39.330Z,46.40
2023-01-07T19:56:12.031Z,47.35
2023-01-07T19:57:43.584Z,46.87
2023-01-07T19:59:15.251Z,47.13
2023-01-07T20:00:49.731Z,46.85
2023-01-07T20:02:21.494Z,46.75
2023-01-07T20:03:53.825Z,46.69
2023-01-07T20:05:27.037Z,47.08
2023-01-07T20:06:59.674Z,47.49
2023-01-07T20:08:40.289Z,47.55
2023-01-07T20:10:21.211Z,47.29
2023-01-07T20:12:09.623Z,47.60
2023-01-07T20:13:46.905Z,47.16
2023-01-07T20:15:22.302Z,46.93
2023-01-07T20:16:58.271Z,47.72
2023-01-07T20:18:33.726Z,47.92
2023-01-07T20:20:43.429Z,48.05
2023-01-07T20:22:15.265Z,48.09
2023-01-07T20:23:48.072Z,47.02
2023-01-07T20:25:20.855Z,47.91
2023-01-07T20:26:54.713Z,47.14
2023-01-07T20:28:27.185Z,47.80
2023-01-07T20:30:04.095Z,47.73
2023-01-07T20:31:45.193Z,47.67
2023-01-07T20:33:19.825Z,47.08
2023-01-07T20:34:54.532Z,47.20
2023-01-07T20:36:27.976Z,47.32
2023-01-07T20:38:00.234Z,47.44